Time;durP1;ratioP1;P1;durP2;ratioP2;P2;SDS_P1;SDS_P2;PMS_P1;PMS_P2;Temp;Humidity;BMP_temperature;BMP_pressure;BME280_temperature;BME280_humidity;BME280_pressure;Samples;Min_cycle;Max_cycle;Signal;HPM_P1;HPM_P2
2022/07/24 00:00:30;;;;;;;;;;;;;;;;;;5025692;28;45520;-78
2022/07/24 00:02:56;;;;;;;;;;;;;;;;;;5026598;28;45121;-80
2022/07/24 00:05:23;;;;;;;;;;;;;;;;;;5011852;28;42368;-80
2022/07/24 00:07:49;;;;;;;;;;;;;;;;;;5025300;28;46786;-80
2022/07/24 00:10:15;;;;;;;;;;;;;;;;;;5026840;28;46555;-79
2022/07/24 00:12:42;;;;;;;;;;;;;;;;;;5015402;28;41868;-79
2022/07/24 00:15:08;;;;;;;;;;;;;;;;;;5011590;28;48111;-79
2022/07/24 00:17:34;;;;;;;;;;;;;;;;;;5013725;28;42835;-80
2022/07/24 00:20:01;;;;;;;;;;;;;;;;;;5011587;28;46421;-79
2022/07/24 00:22:27;;;;;;;;;;;;;;;;;;5011108;28;47983;-79
2022/07/24 00:24:55;;;;;;;;;;;;;;;;;;5013507;28;33801;-79
2022/07/24 00:27:21;;;;;;;;;;;;;;;;;;5027074;28;45895;-79
2022/07/24 00:29:47;;;;;;;;;;;;;;;;;;5027343;28;46817;-79
2022/07/24 00:32:14;;;;;;;;;;;;;;;;;;5009018;28;45152;-79
2022/07/24 00:34:40;;;;;;;;;;;;;;;;;;5011564;28;46392;-80
2022/07/24 00:37:06;;;;;;;;;;;;;;;;;;5012005;28;43690;-80
2022/07/24 00:39:33;;;;;;;;;;;;;;;;;;5014029;28;44786;-79
2022/07/24 00:41:59;;;;;;;;;;;;;;;;;;5013693;28;46973;-79
2022/07/24 00:44:25;;;;;;;;;;;;;;;;;;5030883;28;42688;-79
2022/07/24 00:46:51;;;;;;;;;;;;;;;;;;5014680;28;46435;-79
2022/07/24 00:49:18;;;;;;;;;;;;;;;;;;5029029;28;48764;-80
2022/07/24 00:51:47;;;;;;;;;;;;;;;;;;5016312;28;41632;-80
2022/07/24 00:54:13;;;;;;;;;;;;;;;;;;5031461;28;47943;-79
2022/07/24 00:56:39;;;;;;;;;;;;;;;;;;5010924;28;34023;-80
2022/07/24 00:59:05;;;;;;;;;;;;;;;;;;5032520;28;46074;-80
2022/07/24 01:01:32;;;;;;;;;;;;;;;;;;5014728;28;47106;-80
2022/07/24 01:03:58;;;;;;;;;;;;;;;;;;5031466;28;44868;-79
2022/07/24 01:06:24;;;;;;;;;;;;;;;;;;5014690;28;44963;-79
2022/07/24 01:08:51;;;;;;;;;;;;;;;;;;5018321;28;45632;-80
2022/07/24 01:11:17;;;;;;;;;;;;;;;;;;5029687;28;46885;-79
2022/07/24 01:13:43;;;;;;;;;;;;;;;;;;5032001;28;44622;-80
2022/07/24 01:16:10;;;;;;;;;;;;;;;;;;5013634;28;47587;-79
2022/07/24 01:18:36;;;;;;;;;;;;;;;;;;5027141;28;45268;-80
2022/07/24 01:21:02;;;;;;;;;;;;;;;;;;5031635;28;45570;-79
2022/07/24 01:23:28;;;;;;;;;;;;;;;;;;5029873;28;46028;-79
2022/07/24 01:25:55;;;;;;;;;;;;;;;;;;5028466;28;46636;-79
2022/07/24 01:28:21;;;;;;;;;;;;;;;;;;5012792;28;50018;-79
2022/07/24 01:30:47;;;;;;;;;;;;;;;;;;5013441;28;42524;-79
2022/07/24 01:33:13;;;;;;;;;;;;;;;;;;5028038;28;46609;-79
2022/07/24 01:35:40;;;;;;;;;;;;;;;;;;5026845;28;46996;-79
2022/07/24 01:38:06;;;;;;;;;;;;;;;;;;5027082;28;42147;-80
2022/07/24 01:40:33;;;;;;;;;;;;;;;;;;5009930;28;47989;-79
2022/07/24 01:42:59;;;;;;;;;;;;;;;;;;5008865;28;43502;-80
2022/07/24 01:45:25;;;;;;;;;;;;;;;;;;5007481;28;46357;-78
2022/07/24 01:47:53;;;;;;;;;;;;;;;;;;5003010;28;45339;-78
2022/07/24 01:50:19;;;;;;;;;;;;;;;;;;5011351;28;40263;-79
2022/07/24 01:52:45;;;;;;;;;;;;;;;;;;5025373;28;44912;-78
2022/07/24 01:55:12;;;;;;;;;;;;;;;;;;5010991;28;47135;-79
2022/07/24 01:57:38;;;;;;;;;;;;;;;;;;5011968;28;43736;-78
2022/07/24 02:00:05;;;;;;;;;;;;;;;;;;5000426;28;46579;-78
2022/07/24 02:02:31;;;;;;;;;;;;;;;;;;5025912;28;42662;-80
2022/07/24 02:04:58;;;;;;;;;;;;;;;;;;5012052;28;47411;-80
2022/07/24 02:07:24;;;;;;;;;;;;;;;;;;5027168;28;44334;-79
2022/07/24 02:09:50;;;;;;;;;;;;;;;;;;5013609;28;43847;-79
2022/07/24 02:12:16;;;;;;;;;;;;;;;;;;5027491;28;45071;-79
2022/07/24 02:14:43;;;;;;;;;;;;;;;;;;5027522;28;48314;-79
2022/07/24 02:17:09;;;;;;;;;;;;;;;;;;5027805;28;43560;-79
2022/07/24 02:19:36;;;;;;;;;;;;;;;;;;5012938;28;46410;-79
2022/07/24 02:22:02;;;;;;;;;;;;;;;;;;5026444;28;47064;-78
2022/07/24 02:24:28;;;;;;;;;;;;;;;;;;5028733;28;46833;-78
2022/07/24 02:26:54;;;;;;;;;;;;;;;;;;5030865;28;48691;-78
2022/07/24 02:29:26;;;;;;;;;;;;;;;;;;5028367;28;43536;-78
2022/07/24 02:31:53;;;;;;;;;;;;;;;;;;5013548;28;45317;-78
2022/07/24 02:34:19;;;;;;;;;;;;;;;;;;5027516;28;46422;-78
2022/07/24 02:36:45;;;;;;;;;;;;;;;;;;5013514;28;44007;-78
2022/07/24 02:39:11;;;;;;;;;;;;;;;;;;5013600;28;48047;-78
2022/07/24 02:41:38;;;;;;;;;;;;;;;;;;5001395;28;47183;-78
2022/07/24 02:44:04;;;;;;;;;;;;;;;;;;5012905;28;44719;-79
2022/07/24 02:46:31;;;;;;;;;;;;;;;;;;5010644;28;45741;-79
2022/07/24 02:48:57;;;;;;;;;;;;;;;;;;5028328;28;44684;-79
2022/07/24 02:51:23;;;;;;;;;;;;;;;;;;5020062;28;48659;-80
2022/07/24 02:53:50;;;;;;;;;;;;;;;;;;5010874;28;46906;-79
2022/07/24 02:56:16;;;;;;;;;;;;;;;;;;5009012;28;45398;-79
2022/07/24 02:58:42;;;;;;;;;;;;;;;;;;5010236;28;46179;-79
2022/07/24 03:01:08;;;;;;;;;;;;;;;;;;5034703;28;47962;-80
2022/07/24 03:03:35;;;;;;;;;;;;;;;;;;5026755;28;46465;-79
2022/07/24 03:06:01;;;;;;;;;;;;;;;;;;5008806;28;45337;-79
2022/07/24 03:08:27;;;;;;;;;;;;;;;;;;5013400;28;41756;-79
2022/07/24 03:10:53;;;;;;;;;;;;;;;;;;5011813;28;46005;-79
2022/07/24 03:13:20;;;;;;;;;;;;;;;;;;5026934;28;47314;-80
2022/07/24 03:15:46;;;;;;;;;;;;;;;;;;5027083;28;42203;-79
2022/07/24 03:18:12;;;;;;;;;;;;;;;;;;5011189;28;46305;-80
2022/07/24 03:20:43;;;;;;;;;;;;;;;;;;5027266;28;49449;-79
2022/07/24 03:23:09;;;;;;;;;;;;;;;;;;5007324;28;43103;-78
2022/07/24 03:25:35;;;;;;;;;;;;;;;;;;5023737;28;44099;-79
2022/07/24 03:28:01;;;;;;;;;;;;;;;;;;5023271;28;40937;-79
2022/07/24 03:30:28;;;;;;;;;;;;;;;;;;5010007;28;46034;-79
2022/07/24 03:32:54;;;;;;;;;;;;;;;;;;5008573;28;45450;-78
2022/07/24 03:35:20;;;;;;;;;;;;;;;;;;5006977;28;43604;-80
2022/07/24 03:37:47;;;;;;;;;;;;;;;;;;5025522;28;46856;-81
2022/07/24 03:40:13;;;;;;;;;;;;;;;;;;5010097;28;46902;-81
2022/07/24 03:42:39;;;;;;;;;;;;;;;;;;5008438;28;45286;-79
2022/07/24 03:45:06;;;;;;;;;;;;;;;;;;5009209;28;47600;-79
2022/07/24 03:47:32;;;;;;;;;;;;;;;;;;5023351;28;48369;-80
2022/07/24 03:49:58;;;;;;;;;;;;;;;;;;5017741;28;46628;-79
2022/07/24 03:52:24;;;;;;;;;;;;;;;;;;5019810;28;46729;-79
2022/07/24 03:54:51;;;;;;;;;;;;;;;;;;5009435;28;42381;-79
2022/07/24 03:57:17;;;;;;;;;;;;;;;;;;5009379;28;45701;-79
2022/07/24 03:59:43;;;;;;;;;;;;;;;;;;5007185;28;46110;-78
2022/07/24 04:02:09;;;;;;;;;;;;;;;;;;5007892;28;44610;-78
2022/07/24 04:04:36;;;;;;;;;;;;;;;;;;5022918;28;48172;-81
2022/07/24 04:07:02;;;;;;;;;;;;;;;;;;5007753;28;45834;-80
2022/07/24 04:09:28;;;;;;;;;;;;;;;;;;5007534;28;40849;-80
2022/07/24 04:11:57;;;;;;;;;;;;;;;;;;5007217;28;45448;-78
2022/07/24 04:14:23;;;;;;;;;;;;;;;;;;5006805;28;44631;-79
2022/07/24 04:16:50;;;;;;;;;;;;;;;;;;5008765;28;46925;-80
2022/07/24 04:19:17;;;;;;;;;;;;;;;;;;5009184;28;47283;-82
2022/07/24 04:21:43;;;;;;;;;;;;;;;;;;4998819;28;42210;-80
2022/07/24 04:24:09;;;;;;;;;;;;;;;;;;5001841;28;47553;-79
2022/07/24 04:26:35;;;;;;;;;;;;;;;;;;5023516;28;47991;-79
2022/07/24 04:29:02;;;;;;;;;;;;;;;;;;5020104;28;43557;-80
2022/07/24 04:31:28;;;;;;;;;;;;;;;;;;5009532;28;47802;-79
2022/07/24 04:33:55;;;;;;;;;;;;;;;;;;4998773;28;41923;-79
2022/07/24 04:36:21;;;;;;;;;;;;;;;;;;5007761;28;44842;-80
2022/07/24 04:38:47;;;;;;;;;;;;;;;;;;5022205;28;48082;-79
2022/07/24 04:41:15;;;;;;;;;;;;;;;;;;5003178;28;43905;-78
2022/07/24 04:43:42;;;;;;;;;;;;;;;;;;5019819;28;45054;-78
2022/07/24 04:46:08;;;;;;;;;;;;;;;;;;5028825;28;46957;-78
2022/07/24 04:48:35;;;;;;;;;;;;;;;;;;5011070;28;43803;-78
2022/07/24 04:51:01;;;;;;;;;;;;;;;;;;5027689;28;45049;-78
2022/07/24 04:53:29;;;;;;;;;;;;;;;;;;5013378;28;47935;-78
2022/07/24 04:55:56;;;;;;;;;;;;;;;;;;5028978;28;44708;-78
2022/07/24 04:58:22;;;;;;;;;;;;;;;;;;5029753;28;48314;-78
2022/07/24 05:00:48;;;;;;;;;;;;;;;;;;5010402;28;44227;-78
2022/07/24 05:03:15;;;;;;;;;;;;;;;;;;5010126;28;45342;-78
2022/07/24 05:05:41;;;;;;;;;;;;;;;;;;5013859;28;45480;-78
2022/07/24 05:08:07;;;;;;;;;;;;;;;;;;5027444;28;43300;-78
2022/07/24 05:10:33;;;;;;;;;;;;;;;;;;5010886;28;48165;-78
2022/07/24 05:13:00;;;;;;;;;;;;;;;;;;5024607;28;45470;-78
2022/07/24 05:15:29;;;;;;;;;;;;;;;;;;5012412;28;44384;-78
2022/07/24 05:17:55;;;;;;;;;;;;;;;;;;5029135;28;45332;-78
2022/07/24 05:20:21;;;;;;;;;;;;;;;;;;5026136;28;46416;-78
2022/07/24 05:22:48;;;;;;;;;;;;;;;;;;5009340;28;49267;-78
2022/07/24 05:25:14;;;;;;;;;;;;;;;;;;5026170;28;48131;-78
2022/07/24 05:27:40;;;;;;;;;;;;;;;;;;5029620;28;44239;-78
2022/07/24 05:30:07;;;;;;;;;;;;;;;;;;5013942;28;49448;-78
2022/07/24 05:32:33;;;;;;;;;;;;;;;;;;5008644;28;49544;-78
2022/07/24 05:34:59;;;;;;;;;;;;;;;;;;5024156;28;45660;-79
2022/07/24 05:37:25;;;;;;;;;;;;;;;;;;5028840;28;50043;-78
2022/07/24 05:39:52;;;;;;;;;;;;;;;;;;5030061;28;46373;-79
2022/07/24 05:42:22;;;;;;;;;;;;;;;;;;5009907;28;48974;-78
2022/07/24 05:44:48;;;;;;;;;;;;;;;;;;5009105;28;45947;-78
2022/07/24 05:47:15;;;;;;;;;;;;;;;;;;5026690;28;43818;-79
2022/07/24 05:49:41;;;;;;;;;;;;;;;;;;5009814;28;46331;-78
2022/07/24 05:52:10;;;;;;;;;;;;;;;;;;5005008;28;45639;-78
2022/07/24 05:54:37;;;;;;;;;;;;;;;;;;5020775;28;44812;-78
2022/07/24 05:57:03;;;;;;;;;;;;;;;;;;5012801;28;44841;-78
2022/07/24 05:59:29;;;;;;;;;;;;;;;;;;5010183;28;44742;-78
2022/07/24 06:01:56;;;;;;;;;;;;;;;;;;5015211;28;45000;-78
2022/07/24 06:04:22;;;;;;;;;;;;;;;;;;5016426;28;45914;-78
2022/07/24 06:06:52;;;;;;;;;;;;;;;;;;5033858;28;46021;-78
2022/07/24 06:09:19;;;;;;;;;;;;;;;;;;5018524;28;46701;-78
2022/07/24 06:11:45;;;;;;;;;;;;;;;;;;5016779;28;46986;-78
2022/07/24 06:14:11;;;;;;;;;;;;;;;;;;5011682;28;42611;-78
2022/07/24 06:16:38;;;;;;;;;;;;;;;;;;5017741;28;47498;-78
2022/07/24 06:19:04;;;;;;;;;;;;;;;;;;5033031;28;49241;-78
2022/07/24 06:21:31;;;;;;;;;;;;;;;;;;5028989;28;45263;-78
2022/07/24 06:23:57;;;;;;;;;;;;;;;;;;5013390;28;45797;-78
2022/07/24 06:26:23;;;;;;;;;;;;;;;;;;5013279;28;44183;-79
2022/07/24 06:28:49;;;;;;;;;;;;;;;;;;5023826;28;45367;-80
2022/07/24 06:31:16;;;;;;;;;;;;;;;;;;5027510;28;46271;-79
2022/07/24 06:33:43;;;;;;;;;;;;;;;;;;5029831;28;44612;-79
2022/07/24 06:36:09;;;;;;;;;;;;;;;;;;5026928;28;44038;-80
2022/07/24 06:38:35;;;;;;;;;;;;;;;;;;5011543;28;46694;-80
2022/07/24 06:41:02;;;;;;;;;;;;;;;;;;5029311;28;44717;-80
2022/07/24 06:43:28;;;;;;;;;;;;;;;;;;5014338;28;47173;-79
2022/07/24 06:46:12;;;;;;;;;;;;;;;;;;5031087;28;42507;-79
2022/07/24 06:48:38;;;;;;;;;;;;;;;;;;5010377;28;44201;-79
2022/07/24 06:51:07;;;;;;;;;;;;;;;;;;5033323;28;46321;-79
2022/07/24 06:53:37;;;;;;;;;;;;;;;;;;5014790;28;46821;-78
2022/07/24 06:56:03;;;;;;;;;;;;;;;;;;5008827;28;45830;-79
2022/07/24 06:58:29;;;;;;;;;;;;;;;;;;5009635;28;46936;-78
2022/07/24 07:00:55;;;;;;;;;;;;;;;;;;5007255;28;46219;-78
2022/07/24 07:03:22;;;;;;;;;;;;;;;;;;5007505;28;48097;-77
2022/07/24 07:05:54;;;;;;;;;;;;;;;;;;5012428;28;45092;-77
2022/07/24 07:08:20;;;;;;;;;;;;;;;;;;5023220;28;46425;-79
2022/07/24 07:10:49;;;;;;;;;;;;;;;;;;5006011;28;45246;-77
2022/07/24 07:13:16;;;;;;;;;;;;;;;;;;5018349;28;44868;-77
2022/07/24 07:15:42;;;;;;;;;;;;;;;;;;5008599;28;47740;-77
2022/07/24 07:18:08;;;;;;;;;;;;;;;;;;5006266;28;47515;-78
2022/07/24 07:20:34;;;;;;;;;;;;;;;;;;5022608;28;43654;-77
2022/07/24 07:23:01;;;;;;;;;;;;;;;;;;5008443;28;45963;-78
2022/07/24 07:25:29;;;;;;;;;;;;;;;;;;5019060;28;44082;-78
2022/07/24 07:27:55;;;;;;;;;;;;;;;;;;5001516;28;46238;-78
2022/07/24 07:30:21;;;;;;;;;;;;;;;;;;5002131;28;48137;-77
2022/07/24 07:32:47;;;;;;;;;;;;;;;;;;4999830;28;43634;-78
2022/07/24 07:35:14;;;;;;;;;;;;;;;;;;4996819;28;48936;-77
2022/07/24 07:37:46;;;;;;;;;;;;;;;;;;5018071;28;45129;-78
2022/07/24 07:40:12;;;;;;;;;;;;;;;;;;5006546;28;43722;-78
2022/07/24 07:42:39;;;;;;;;;;;;;;;;;;5006670;28;46162;-80
2022/07/24 07:45:05;;;;;;;;;;;;;;;;;;5007683;28;45875;-79
2022/07/24 07:47:32;;;;;;;;;;;;;;;;;;5005680;28;46000;-79
2022/07/24 07:49:58;;;;;;;;;;;;;;;;;;5007140;28;45212;-80
2022/07/24 07:52:24;;;;;;;;;;;;;;;;;;5005512;28;44801;-79
2022/07/24 07:54:52;;;;;;;;;;;;;;;;;;5008317;28;47823;-78
2022/07/24 07:57:18;;;;;;;;;;;;;;;;;;5022585;28;50744;-78
2022/07/24 07:59:44;;;;;;;;;;;;;;;;;;5008235;28;44889;-78
2022/07/24 08:02:10;;;;;;;;;;;;;;;;;;5023736;28;46726;-79
2022/07/24 08:04:37;;;;;;;;;;;;;;;;;;5025335;28;46629;-79
2022/07/24 08:07:03;;;;;;;;;;;;;;;;;;5009252;28;44722;-79
2022/07/24 08:09:29;;;;;;;;;;;;;;;;;;5008325;28;45232;-78
2022/07/24 08:11:56;;;;;;;;;;;;;;;;;;5000956;28;42854;-79
2022/07/24 08:14:23;;;;;;;;;;;;;;;;;;5008163;28;45228;-78
2022/07/24 08:16:49;;;;;;;;;;;;;;;;;;5007882;28;49339;-80
2022/07/24 08:19:15;;;;;;;;;;;;;;;;;;5024358;28;45139;-78
2022/07/24 08:21:42;;;;;;;;;;;;;;;;;;5008483;28;46620;-81
2022/07/24 08:24:08;;;;;;;;;;;;;;;;;;5023737;28;45745;-79
2022/07/24 08:26:34;;;;;;;;;;;;;;;;;;5007470;28;44118;-77
2022/07/24 08:29:01;;;;;;;;;;;;;;;;;;5005750;28;46463;-78
2022/07/24 08:31:27;;;;;;;;;;;;;;;;;;5023327;28;42690;-79
2022/07/24 08:33:54;;;;;;;;;;;;;;;;;;5006449;28;47745;-78
2022/07/24 08:36:20;;;;;;;;;;;;;;;;;;5007679;28;46979;-79
2022/07/24 10:00:57;;;;;;;;;;;;;;;;;;5041893;28;19929;-77
2022/07/24 10:03:23;;;;;;;;;;;;;;;;;;5032916;28;42274;-77
2022/07/24 10:05:50;;;;;;;;;;;;;;;;;;5030306;28;47923;-77
2022/07/24 10:08:16;;;;;;;;;;;;;;;;;;5036131;28;42287;-77
2022/07/24 10:10:42;;;;;;;;;;;;;;;;;;5049305;28;44603;-77
2022/07/24 10:13:09;;;;;;;;;;;;;;;;;;5046282;28;48189;-77
2022/07/24 10:15:35;;;;;;;;;;;;;;;;;;5030304;28;42659;-77
2022/07/24 10:18:01;;;;;;;;;;;;;;;;;;5034892;28;46429;-77
2022/07/24 10:20:27;;;;;;;;;;;;;;;;;;5054947;28;46876;-77
2022/07/24 10:23:10;;;;;;;;;;;;;;;;;;5056111;28;41632;-77
2022/07/24 10:25:36;;;;;;;;;;;;;;;;;;5030161;28;47454;-77
2022/07/24 10:28:03;;;;;;;;;;;;;;;;;;5046733;28;46838;-77
2022/07/24 10:30:29;;;;;;;;;;;;;;;;;;5029682;28;44825;-77
2022/07/24 10:32:55;;;;;;;;;;;;;;;;;;5031192;28;45958;-77
2022/07/24 10:35:21;;;;;;;;;;;;;;;;;;5036539;28;45025;-79
2022/07/24 10:37:48;;;;;;;;;;;;;;;;;;5032602;28;45469;-77
2022/07/24 10:40:14;;;;;;;;;;;;;;;;;;5028030;28;45509;-77
2022/07/24 10:42:40;;;;;;;;;;;;;;;;;;5044251;28;41214;-77
2022/07/24 10:45:10;;;;;;;;;;;;;;;;;;5027887;28;46451;-77
2022/07/24 10:47:36;;;;;;;;;;;;;;;;;;5050419;28;48351;-77
2022/07/24 10:50:04;;;;;;;;;;;;;;;;;;5027927;28;42156;-77
2022/07/24 10:52:31;;;;;;;;;;;;;;;;;;5041263;28;47473;-77
2022/07/24 10:54:57;;;;;;;;;;;;;;;;;;5033635;28;44732;-77
2022/07/24 10:57:23;;;;;;;;;;;;;;;;;;5031640;28;47556;-78
2022/07/24 10:59:49;;;;;;;;;;;;;;;;;;5031414;28;48071;-78
2022/07/24 11:02:15;;;;;;;;;;;;;;;;;;5031116;28;44718;-77
2022/07/24 11:04:42;;;;;;;;;;;;;;;;;;5047450;28;45692;-77
2022/07/24 11:07:08;;;;;;;;;;;;;;;;;;5033403;28;48164;-77
2022/07/24 11:09:34;;;;;;;;;;;;;;;;;;5028284;28;45564;-77
2022/07/24 11:12:01;;;;;;;;;;;;;;;;;;5048327;28;45729;-77
2022/07/24 11:14:27;;;;;;;;;;;;;;;;;;5029509;28;42392;-77
2022/07/24 11:16:53;;;;;;;;;;;;;;;;;;5056702;28;44031;-77
2022/07/24 11:19:20;;;;;;;;;;;;;;;;;;5048127;28;45702;-78
2022/07/24 11:21:46;;;;;;;;;;;;;;;;;;5031148;28;42554;-77
2022/07/24 11:24:12;;;;;;;;;;;;;;;;;;5047323;28;46454;-77
2022/07/24 11:26:42;;;;;;;;;;;;;;;;;;5029567;28;46835;-77
2022/07/24 11:29:08;;;;;;;;;;;;;;;;;;5032301;28;43600;-77
2022/07/24 11:31:34;;;;;;;;;;;;;;;;;;5044931;28;46416;-77
2022/07/24 11:34:00;;;;;;;;;;;;;;;;;;5036576;28;34574;-78
2022/07/24 11:36:27;;;;;;;;;;;;;;;;;;5024353;28;44500;-77
2022/07/24 11:38:53;;;;;;;;;;;;;;;;;;5043974;28;46912;-77
2022/07/24 11:41:19;;;;;;;;;;;;;;;;;;5043078;28;43511;-77
2022/07/24 11:43:46;;;;;;;;;;;;;;;;;;5044557;28;47602;-77
2022/07/24 11:46:12;;;;;;;;;;;;;;;;;;5043356;28;45848;-77
2022/07/24 11:48:38;;;;;;;;;;;;;;;;;;5043308;28;45178;-77
2022/07/24 11:51:05;;;;;;;;;;;;;;;;;;5027065;28;49795;-76
2022/07/24 11:53:51;;;;;;;;;;;;;;;;;;5045262;28;19955;-76
2022/07/24 11:56:17;;;;;;;;;;;;;;;;;;5045123;28;45952;-76
2022/07/24 11:58:44;;;;;;;;;;;;;;;;;;5034605;28;48458;-76
2022/07/24 12:01:10;;;;;;;;;;;;;;;;;;5045974;28;43736;-76
2022/07/24 12:03:36;;;;;;;;;;;;;;;;;;5027583;28;48060;-76
2022/07/24 12:06:04;;;;;;;;;;;;;;;;;;5043226;28;46370;-76
2022/07/24 12:08:31;;;;;;;;;;;;;;;;;;5043438;28;41059;-76
2022/07/24 12:10:57;;;;;;;;;;;;;;;;;;5041605;28;47344;-76
2022/07/24 12:13:23;;;;;;;;;;;;;;;;;;5024748;28;47964;-76
2022/07/24 12:15:50;;;;;;;;;;;;;;;;;;5027524;28;44038;-76
2022/07/24 12:18:16;;;;;;;;;;;;;;;;;;5032061;28;47952;-76
2022/07/24 12:20:47;;;;;;;;;;;;;;;;;;5040463;28;44082;-76
2022/07/24 12:23:13;;;;;;;;;;;;;;;;;;5024041;28;47624;-76
2022/07/24 12:25:39;;;;;;;;;;;;;;;;;;5025430;28;46043;-76
2022/07/24 12:28:06;;;;;;;;;;;;;;;;;;5045017;28;43711;-76
2022/07/24 12:30:32;;;;;;;;;;;;;;;;;;5026181;28;46648;-76
2022/07/24 12:32:58;;;;;;;;;;;;;;;;;;5030507;28;48171;-76
2022/07/24 12:35:25;;;;;;;;;;;;;;;;;;5047371;28;44740;-76
2022/07/24 12:37:51;;;;;;;;;;;;;;;;;;5047989;28;44952;-76
2022/07/24 12:40:17;;;;;;;;;;;;;;;;;;5047824;28;43717;-76
2022/07/24 12:42:43;;;;;;;;;;;;;;;;;;5028965;28;46440;-76
2022/07/24 12:45:10;;;;;;;;;;;;;;;;;;5028112;28;48073;-76
2022/07/24 12:47:36;;;;;;;;;;;;;;;;;;5043374;28;41504;-76
2022/07/24 12:50:02;;;;;;;;;;;;;;;;;;5051128;28;47663;-76
2022/07/24 12:52:28;;;;;;;;;;;;;;;;;;5019213;28;48019;-76
2022/07/24 12:54:55;;;;;;;;;;;;;;;;;;5056617;28;44948;-76
2022/07/24 12:57:21;;;;;;;;;;;;;;;;;;5045868;28;46442;-76
2022/07/24 12:59:53;;;;;;;;;;;;;;;;;;5051936;28;48243;-76
2022/07/24 13:02:19;;;;;;;;;;;;;;;;;;5028944;28;46427;-77
2022/07/24 13:04:45;;;;;;;;;;;;;;;;;;5053337;28;47391;-76
2022/07/24 13:07:14;;;;;;;;;;;;;;;;;;5029116;28;45325;-76
2022/07/24 13:09:41;;;;;;;;;;;;;;;;;;5044504;28;47690;-76
2022/07/24 13:12:07;;;;;;;;;;;;;;;;;;5046893;28;49227;-76
2022/07/24 13:14:35;;;;;;;;;;;;;;;;;;5046830;28;41311;-76
2022/07/24 13:17:01;;;;;;;;;;;;;;;;;;5025661;28;47502;-76
2022/07/24 13:19:28;;;;;;;;;;;;;;;;;;5023251;28;47028;-76
2022/07/24 13:21:54;;;;;;;;;;;;;;;;;;5030424;28;44834;-76
2022/07/24 13:24:21;;;;;;;;;;;;;;;;;;5046067;28;47166;-75
2022/07/24 13:26:48;;;;;;;;;;;;;;;;;;5028360;28;44550;-75
2022/07/24 13:29:15;;;;;;;;;;;;;;;;;;5047280;28;44945;-76
2022/07/24 13:31:41;;;;;;;;;;;;;;;;;;5047720;28;46981;-74
2022/07/24 13:34:08;;;;;;;;;;;;;;;;;;5046620;28;45301;-74
2022/07/24 13:36:36;;;;;;;;;;;;;;;;;;5046860;28;45847;-74
2022/07/24 13:39:02;;;;;;;;;;;;;;;;;;5046471;28;47485;-75
2022/07/24 13:41:28;;;;;;;;;;;;;;;;;;5046845;28;43735;-75
2022/07/24 13:43:55;;;;;;;;;;;;;;;;;;5044138;28;46984;-74
2022/07/24 13:46:21;;;;;;;;;;;;;;;;;;5044823;28;43898;-74
2022/07/24 13:48:47;;;;;;;;;;;;;;;;;;5054187;28;46818;-74
2022/07/24 13:51:17;;;;;;;;;;;;;;;;;;5044783;28;46087;-74
2022/07/24 13:53:43;;;;;;;;;;;;;;;;;;5041623;28;42725;-75
2022/07/24 13:56:09;;;;;;;;;;;;;;;;;;5040448;28;47536;-75
2022/07/24 13:58:35;;;;;;;;;;;;;;;;;;5028116;28;48116;-75
2022/07/24 14:01:02;;;;;;;;;;;;;;;;;;5031965;28;46518;-75
2022/07/24 14:03:28;;;;;;;;;;;;;;;;;;5023623;28;47457;-75
2022/07/24 14:06:04;;;;;;;;;;;;;;;;;;5042418;28;45183;-74
2022/07/24 14:08:30;;;;;;;;;;;;;;;;;;5044511;28;46256;-74
2022/07/24 14:10:56;;;;;;;;;;;;;;;;;;5041129;28;46175;-74
2022/07/24 14:13:23;;;;;;;;;;;;;;;;;;5041462;28;42900;-75
2022/07/24 14:15:49;;;;;;;;;;;;;;;;;;5046758;28;46440;-75
2022/07/24 14:18:15;;;;;;;;;;;;;;;;;;5044169;28;46743;-75
2022/07/24 14:20:42;;;;;;;;;;;;;;;;;;5041333;28;44738;-75
2022/07/24 14:23:08;;;;;;;;;;;;;;;;;;5024172;28;46644;-75
2022/07/24 14:25:34;;;;;;;;;;;;;;;;;;5041459;28;48277;-75
2022/07/24 14:28:01;;;;;;;;;;;;;;;;;;5040357;28;47586;-75
2022/07/24 14:30:27;;;;;;;;;;;;;;;;;;5045204;28;48106;-75
2022/07/24 14:32:53;;;;;;;;;;;;;;;;;;5043838;28;43640;-75
2022/07/24 14:35:20;;;;;;;;;;;;;;;;;;5044682;28;46412;-75
2022/07/24 14:37:46;;;;;;;;;;;;;;;;;;5042843;28;47104;-75
2022/07/24 14:40:12;;;;;;;;;;;;;;;;;;5045187;28;44521;-75
2022/07/24 14:42:38;;;;;;;;;;;;;;;;;;5045868;28;47525;-75
2022/07/24 14:45:05;;;;;;;;;;;;;;;;;;5056237;28;47236;-75
2022/07/24 14:47:31;;;;;;;;;;;;;;;;;;5042098;28;44751;-75
2022/07/24 14:49:57;;;;;;;;;;;;;;;;;;5044551;28;46840;-75
2022/07/24 14:52:23;;;;;;;;;;;;;;;;;;5043799;28;44816;-75
2022/07/24 14:54:50;;;;;;;;;;;;;;;;;;5041612;28;46488;-76
2022/07/24 14:57:16;;;;;;;;;;;;;;;;;;5043257;28;48004;-75
2022/07/24 14:59:42;;;;;;;;;;;;;;;;;;5042389;28;44863;-75
2022/07/24 15:02:08;;;;;;;;;;;;;;;;;;5024069;28;47548;-75
2022/07/24 15:04:35;;;;;;;;;;;;;;;;;;5041134;28;48611;-76
2022/07/24 15:07:01;;;;;;;;;;;;;;;;;;5039962;28;44173;-77
2022/07/24 15:09:27;;;;;;;;;;;;;;;;;;5038868;28;46483;-76
2022/07/24 15:11:53;;;;;;;;;;;;;;;;;;5024361;28;44677;-76
2022/07/24 15:14:20;;;;;;;;;;;;;;;;;;5045837;28;46793;-77
2022/07/24 15:16:46;;;;;;;;;;;;;;;;;;5043736;28;47044;-78
2022/07/24 15:19:12;;;;;;;;;;;;;;;;;;5030114;28;43381;-78
2022/07/24 15:21:38;;;;;;;;;;;;;;;;;;5029601;28;46426;-78
2022/07/24 15:24:05;;;;;;;;;;;;;;;;;;5042366;28;48163;-78
2022/07/24 15:26:32;;;;;;;;;;;;;;;;;;5025925;28;42263;-77
2022/07/24 15:28:58;;;;;;;;;;;;;;;;;;5040393;28;47905;-78
2022/07/24 15:31:24;;;;;;;;;;;;;;;;;;5033595;28;47567;-78
2022/07/24 15:33:50;;;;;;;;;;;;;;;;;;5025380;28;47970;-78
2022/07/24 15:36:17;;;;;;;;;;;;;;;;;;5026875;28;47217;-77
2022/07/24 15:38:46;;;;;;;;;;;;;;;;;;5046415;28;43085;-78
2022/07/24 15:41:12;;;;;;;;;;;;;;;;;;5028200;28;45971;-78
2022/07/24 15:43:38;;;;;;;;;;;;;;;;;;5050128;28;47347;-77
2022/07/24 15:46:05;;;;;;;;;;;;;;;;;;5024165;28;44041;-78
2022/07/24 15:48:31;;;;;;;;;;;;;;;;;;5045115;28;45831;-78
2022/07/24 15:50:57;;;;;;;;;;;;;;;;;;5047391;28;48349;-77
2022/07/24 15:53:23;;;;;;;;;;;;;;;;;;5025521;28;47850;-78
2022/07/24 15:55:50;;;;;;;;;;;;;;;;;;5041417;28;48225;-78
2022/07/24 15:58:16;;;;;;;;;;;;;;;;;;5047903;28;44878;-78
2022/07/24 16:00:42;;;;;;;;;;;;;;;;;;5032860;28;49014;-78
2022/07/24 16:03:08;;;;;;;;;;;;;;;;;;5045061;28;46992;-78
2022/07/24 16:05:35;;;;;;;;;;;;;;;;;;5027026;28;45121;-77
2022/07/24 16:08:01;;;;;;;;;;;;;;;;;;5024433;28;47625;-77
2022/07/24 16:10:28;;;;;;;;;;;;;;;;;;5037979;28;47293;-77
2022/07/24 16:12:54;;;;;;;;;;;;;;;;;;5027668;28;43744;-77
2022/07/24 16:15:27;;;;;;;;;;;;;;;;;;5032432;28;48426;-79
2022/07/24 16:17:53;;;;;;;;;;;;;;;;;;5049580;28;44986;-77
2022/07/24 16:20:19;;;;;;;;;;;;;;;;;;5020025;28;47436;-77
2022/07/24 16:22:45;;;;;;;;;;;;;;;;;;5044769;28;46982;-76
2022/07/24 16:25:12;;;;;;;;;;;;;;;;;;5045133;28;44802;-76
2022/07/24 16:27:38;;;;;;;;;;;;;;;;;;5043629;28;47438;-75
2022/07/24 16:30:04;;;;;;;;;;;;;;;;;;5029761;28;45444;-76
2022/07/24 16:32:31;;;;;;;;;;;;;;;;;;5047899;28;43753;-76
2022/07/24 16:34:57;;;;;;;;;;;;;;;;;;5028143;28;47576;-76
2022/07/24 16:37:24;;;;;;;;;;;;;;;;;;5015821;28;44746;-76
2022/07/24 16:39:54;;;;;;;;;;;;;;;;;;5026795;28;46370;-76
2022/07/24 16:42:20;;;;;;;;;;;;;;;;;;5043315;28;46993;-77
2022/07/24 16:44:46;;;;;;;;;;;;;;;;;;5045769;28;43898;-76
2022/07/24 16:47:12;;;;;;;;;;;;;;;;;;5029999;28;47380;-76
2022/07/24 16:49:44;;;;;;;;;;;;;;;;;;5050705;28;45055;-77
2022/07/24 16:52:12;;;;;;;;;;;;;;;;;;5045442;28;45805;-76
2022/07/24 16:54:39;;;;;;;;;;;;;;;;;;5050249;28;46384;-77
2022/07/24 16:57:05;;;;;;;;;;;;;;;;;;5026262;28;47012;-76
2022/07/24 16:59:31;;;;;;;;;;;;;;;;;;5024363;28;47250;-76
2022/07/24 17:01:57;;;;;;;;;;;;;;;;;;5044433;28;48011;-76
2022/07/24 17:04:24;;;;;;;;;;;;;;;;;;5042205;28;45231;-76
2022/07/24 17:06:50;;;;;;;;;;;;;;;;;;5025012;28;45065;-76
2022/07/24 17:09:16;;;;;;;;;;;;;;;;;;5045020;28;48536;-76
2022/07/24 17:11:42;;;;;;;;;;;;;;;;;;5041419;28;43607;-76
2022/07/24 17:14:09;;;;;;;;;;;;;;;;;;5027861;28;46403;-76
2022/07/24 17:16:35;;;;;;;;;;;;;;;;;;5046340;28;44917;-76
2022/07/24 17:19:01;;;;;;;;;;;;;;;;;;5023170;28;43981;-76
2022/07/24 17:21:28;;;;;;;;;;;;;;;;;;5028899;28;46923;-76
2022/07/24 17:23:54;;;;;;;;;;;;;;;;;;5042315;28;43806;-76
2022/07/24 17:26:20;;;;;;;;;;;;;;;;;;5045792;28;47514;-75
2022/07/24 17:28:47;;;;;;;;;;;;;;;;;;5044511;28;48146;-76
2022/07/24 17:31:13;;;;;;;;;;;;;;;;;;5022962;28;43613;-76
2022/07/24 17:33:45;;;;;;;;;;;;;;;;;;5042152;28;46585;-76
2022/07/24 17:36:11;;;;;;;;;;;;;;;;;;5047348;28;48032;-76
2022/07/24 17:38:37;;;;;;;;;;;;;;;;;;5045032;28;42915;-76
2022/07/24 17:41:03;;;;;;;;;;;;;;;;;;5047273;28;46983;-75
2022/07/24 17:43:30;;;;;;;;;;;;;;;;;;5050975;28;44027;-76
2022/07/24 17:45:56;;;;;;;;;;;;;;;;;;5043805;28;46502;-76
2022/07/24 17:48:22;;;;;;;;;;;;;;;;;;5051205;28;46185;-76
2022/07/24 17:50:49;;;;;;;;;;;;;;;;;;5044263;28;43822;-75
2022/07/24 17:53:15;;;;;;;;;;;;;;;;;;5041421;28;46534;-76
2022/07/24 17:55:41;;;;;;;;;;;;;;;;;;5041304;28;47040;-76
2022/07/24 17:58:08;;;;;;;;;;;;;;;;;;5048032;28;43742;-76
2022/07/24 18:00:34;;;;;;;;;;;;;;;;;;5028913;28;46593;-76
2022/07/24 18:03:00;;;;;;;;;;;;;;;;;;5026134;28;45348;-76